createdAt,value
2018-03-09T00:02:18.545Z,11.73
2018-03-09T00:04:44.830Z,12.67
2018-03-09T00:07:11.878Z,13.80
2018-03-09T00:09:38.201Z,13.67
2018-03-09T00:12:04.531Z,14.60
2018-03-09T00:14:31.601Z,14.83
2018-03-09T00:16:57.918Z,14.27
2018-03-09T00:19:24.247Z,14.60
2018-03-09T00:21:51.297Z,14.50
2018-03-09T00:24:17.596Z,15.20
2018-03-09T00:26:43.880Z,16.43
2018-03-09T00:29:10.213Z,16.90
2018-03-09T00:31:36.543Z,16.20
2018-03-09T00:34:02.889Z,16.43
2018-03-09T00:36:29.222Z,15.10
2018-03-09T00:38:57.017Z,17.27
2018-03-09T00:41:24.063Z,17.60
2018-03-09T00:43:51.145Z,18.07
2018-03-09T00:46:17.470Z,16.90
2018-03-09T00:48:43.815Z,18.63
2018-03-09T00:51:16.038Z,17.43
2018-03-09T00:53:43.076Z,18.40
2018-03-09T00:56:09.390Z,17.43
2018-03-09T00:58:35.680Z,18.20
2018-03-09T01:01:01.981Z,18.40
2018-03-09T01:03:28.302Z,17.03
2018-03-09T01:05:56.071Z,17.27
2018-03-09T01:08:23.160Z,19.73
2018-03-09T01:10:49.481Z,17.73
2018-03-09T01:13:15.802Z,17.70
2018-03-09T01:15:42.112Z,18.17
2018-03-09T01:18:09.160Z,19.30
2018-03-09T01:20:36.244Z,19.87
2018-03-09T01:23:02.540Z,19.20
2018-03-09T01:25:29.584Z,19.57
2018-03-09T01:27:56.625Z,20.67
2018-03-09T01:30:22.920Z,20.70
2018-03-09T01:32:49.195Z,19.13
2018-03-09T01:35:16.237Z,20.50
2018-03-09T01:37:42.556Z,19.90
2018-03-09T01:40:09.641Z,19.00
2018-03-09T01:42:35.949Z,19.67
2018-03-09T01:45:03.012Z,19.53
2018-03-09T01:47:29.294Z,19.80
2018-03-09T01:49:55.585Z,18.17
2018-03-09T01:52:34.612Z,20.60
2018-03-09T01:55:00.921Z,19.20
2018-03-09T01:57:27.237Z,18.23
2018-03-09T01:59:53.567Z,19.53
2018-03-09T02:02:20.634Z,18.60
2018-03-09T02:04:47.655Z,18.83
2018-03-09T02:07:14.712Z,18.87
2018-03-09T02:09:41.040Z,19.17
2018-03-09T02:12:08.105Z,19.20
2018-03-09T02:14:34.422Z,18.93
2018-03-09T02:17:01.461Z,20.00
2018-03-09T02:19:27.761Z,18.50
2018-03-09T02:21:54.089Z,19.50
2018-03-09T02:24:20.383Z,18.80
2018-03-09T02:26:46.687Z,19.67
2018-03-09T02:29:13.724Z,17.17
2018-03-09T02:31:40.763Z,19.87
2018-03-09T02:34:07.047Z,19.97
2018-03-09T02:36:33.369Z,19.23
2018-03-09T02:38:59.670Z,16.43
2018-03-09T02:41:26.699Z,15.70
2018-03-09T02:43:52.985Z,16.10
2018-03-09T02:46:19.309Z,16.97
2018-03-09T02:48:45.598Z,16.00
2018-03-09T02:51:12.669Z,17.03
2018-03-09T02:53:38.960Z,15.37
2018-03-09T02:56:05.294Z,16.77
2018-03-09T02:58:32.363Z,15.77
2018-03-09T03:00:58.661Z,16.23
2018-03-09T03:03:24.957Z,15.50
2018-03-09T03:05:51.260Z,15.07
2018-03-09T03:08:17.614Z,14.97
2018-03-09T03:10:43.921Z,16.33
2018-03-09T03:13:10.263Z,14.90
2018-03-09T03:15:36.558Z,14.03
2018-03-09T03:18:03.628Z,14.97
2018-03-09T03:20:29.949Z,14.30
2018-03-09T03:22:57.033Z,15.00
2018-03-09T03:25:23.357Z,12.73
2018-03-09T03:27:49.641Z,13.90
2018-03-09T03:30:15.931Z,14.00
2018-03-09T03:32:42.250Z,13.20
2018-03-09T03:35:08.542Z,11.90
2018-03-09T03:37:34.859Z,12.97
2018-03-09T03:40:01.908Z,13.07
2018-03-09T03:42:28.961Z,14.73
2018-03-09T03:44:56.004Z,13.80
2018-03-09T03:47:22.316Z,13.47
2018-03-09T03:49:48.649Z,13.20
2018-03-09T03:52:14.980Z,15.30
2018-03-09T03:54:41.284Z,16.60
2018-03-09T03:57:07.585Z,15.60
2018-03-09T03:59:33.908Z,15.47
2018-03-09T04:02:00.218Z,15.70
2018-03-09T04:04:27.294Z,15.67
2018-03-09T04:06:53.577Z,15.23
2018-03-09T04:09:20.632Z,15.30
2018-03-09T04:11:46.925Z,14.30
2018-03-09T04:14:13.241Z,17.00
2018-03-09T04:16:39.529Z,17.27
2018-03-09T04:19:06.589Z,17.70
2018-03-09T04:21:33.624Z,15.80
2018-03-09T04:24:00.679Z,17.10
2018-03-09T04:26:27.730Z,17.20
2018-03-09T04:28:54.788Z,14.90
2018-03-09T04:31:21.834Z,15.60
2018-03-09T04:33:48.882Z,16.90
2018-03-09T04:36:15.188Z,15.73
2018-03-09T04:38:42.264Z,14.70
2018-03-09T04:41:09.282Z,13.80
2018-03-09T04:43:36.353Z,12.37
2018-03-09T04:46:02.694Z,13.73
2018-03-09T04:48:28.971Z,12.50
2018-03-09T04:50:55.299Z,13.10
2018-03-09T04:53:21.581Z,13.07
2018-03-09T04:55:47.911Z,11.30
2018-03-09T04:58:14.190Z,11.20
2018-03-09T05:00:40.517Z,11.87
2018-03-09T05:03:06.820Z,10.60
2018-03-09T05:05:33.129Z,10.93
2018-03-09T05:07:59.443Z,10.47
2018-03-09T05:10:25.783Z,10.53
2018-03-09T05:12:52.090Z,9.83
2018-03-09T05:15:18.396Z,9.90
2018-03-09T05:17:44.717Z,9.47
2018-03-09T05:20:11.021Z,9.33
2018-03-09T05:22:37.289Z,8.90
2018-03-09T05:25:03.606Z,9.40
2018-03-09T05:27:29.926Z,9.50
2018-03-09T05:29:56.241Z,9.33
2018-03-09T05:32:22.537Z,8.53
2018-03-09T05:34:49.598Z,9.63
2018-03-09T05:37:16.632Z,9.70
2018-03-09T05:39:43.696Z,9.70
2018-03-09T05:42:10.726Z,10.07
2018-03-09T05:44:37.762Z,10.47
2018-03-09T05:47:04.061Z,11.13
2018-03-09T05:49:30.352Z,9.60
2018-03-09T05:51:56.663Z,11.00
2018-03-09T05:54:22.995Z,11.07
2018-03-09T05:56:49.292Z,12.30
2018-03-09T05:59:15.589Z,10.83
2018-03-09T06:01:41.912Z,10.87
2018-03-09T06:04:08.232Z,11.33
2018-03-09T06:06:34.572Z,11.47
2018-03-09T06:09:00.872Z,11.20
2018-03-09T06:11:27.941Z,12.10
2018-03-09T06:13:54.254Z,11.20
2018-03-09T06:16:21.328Z,12.00
2018-03-09T06:18:47.618Z,14.50
2018-03-09T06:21:13.917Z,12.27
2018-03-09T06:23:40.231Z,13.50
2018-03-09T06:26:06.557Z,13.73
2018-03-09T06:28:32.842Z,13.20
2018-03-09T06:30:59.163Z,13.23
2018-03-09T06:33:25.460Z,13.77
2018-03-09T06:35:51.769Z,12.93
2018-03-09T06:38:18.056Z,13.80
2018-03-09T06:40:44.376Z,13.70
2018-03-09T06:43:10.685Z,14.53
2018-03-09T06:45:36.988Z,13.80
2018-03-09T06:48:03.317Z,13.60
2018-03-09T06:50:29.636Z,12.60
2018-03-09T06:52:56.060Z,13.90
2018-03-09T06:55:22.349Z,12.70
2018-03-09T06:57:48.669Z,12.50
2018-03-09T07:00:14.969Z,14.63
2018-03-09T07:02:41.283Z,12.67
2018-03-09T07:05:07.570Z,13.90
2018-03-09T07:07:33.888Z,13.00
2018-03-09T07:10:00.198Z,11.90
2018-03-09T07:12:26.507Z,12.77
2018-03-09T07:14:52.806Z,12.83
2018-03-09T07:17:19.116Z,12.17
2018-03-09T07:19:45.434Z,12.23
2018-03-09T07:22:11.778Z,12.60
2018-03-09T07:24:38.078Z,11.97
2018-03-09T07:27:04.396Z,14.40
2018-03-09T07:29:30.688Z,12.30
2018-03-09T07:31:57.000Z,14.20
2018-03-09T07:34:23.287Z,12.87
2018-03-09T07:36:49.601Z,14.00
2018-03-09T07:39:15.893Z,15.53
2018-03-09T07:41:42.243Z,14.57
2018-03-09T07:44:09.258Z,14.63
2018-03-09T07:46:35.553Z,12.97
2018-03-09T07:49:01.846Z,13.13
2018-03-09T07:51:28.925Z,12.50
2018-03-09T07:53:55.210Z,12.80
2018-03-09T07:56:21.538Z,11.57
2018-03-09T07:58:47.887Z,10.93
2018-03-09T08:01:14.955Z,9.67
2018-03-09T08:03:41.315Z,9.80
2018-03-09T08:06:07.642Z,9.00
2018-03-09T08:08:33.968Z,9.33
2018-03-09T08:11:00.341Z,8.80
2018-03-09T08:13:26.689Z,8.30
2018-03-09T08:15:53.038Z,9.47
2018-03-09T08:18:19.383Z,10.50
2018-03-09T08:20:45.710Z,10.20
2018-03-09T08:23:12.056Z,12.40
2018-03-09T08:25:38.400Z,13.10
2018-03-09T08:28:04.791Z,13.57
2018-03-09T08:30:31.106Z,12.07
2018-03-09T08:32:58.174Z,13.13
2018-03-09T08:35:24.517Z,12.30
2018-03-09T08:37:50.870Z,12.93
2018-03-09T08:40:17.205Z,11.77
2018-03-09T08:42:43.571Z,11.10
2018-03-09T08:45:10.680Z,10.57
2018-03-09T08:47:37.044Z,10.50
2018-03-09T08:50:04.236Z,11.07
2018-03-09T08:52:30.562Z,10.33
2018-03-09T08:54:56.920Z,9.77
2018-03-09T08:57:23.259Z,9.57
2018-03-09T08:59:49.602Z,9.00
2018-03-09T09:02:15.936Z,10.03
2018-03-09T09:04:42.307Z,9.23
2018-03-09T09:07:08.683Z,8.60
2018-03-09T09:09:35.043Z,9.50
2018-03-09T09:12:01.384Z,9.47
2018-03-09T09:14:28.463Z,8.00
2018-03-09T09:16:54.806Z,9.50
2018-03-09T09:19:21.148Z,9.67
2018-03-09T09:21:47.480Z,8.90
2018-03-09T09:24:13.814Z,8.97
2018-03-09T09:26:40.137Z,9.00
2018-03-09T09:29:06.476Z,9.70
2018-03-09T09:31:32.800Z,8.90
2018-03-09T09:33:59.144Z,10.03
2018-03-09T09:36:25.470Z,9.50
2018-03-09T09:38:51.826Z,9.60
2018-03-09T09:41:18.896Z,9.30
2018-03-09T09:43:45.254Z,9.67
2018-03-09T09:46:11.583Z,10.23
2018-03-09T09:48:37.941Z,10.87
2018-03-09T09:51:04.302Z,10.30
2018-03-09T09:53:30.672Z,10.83
2018-03-09T09:55:57.089Z,11.77
2018-03-09T09:58:23.435Z,10.13
2018-03-09T10:00:50.543Z,11.10
2018-03-09T10:03:17.686Z,10.77
2018-03-09T10:05:44.027Z,13.33
2018-03-09T10:08:11.135Z,12.60
2018-03-09T10:10:37.496Z,11.70
2018-03-09T10:13:04.719Z,12.03
2018-03-09T10:15:31.170Z,12.67
2018-03-09T10:17:57.512Z,12.00
2018-03-09T10:20:24.661Z,13.10
2018-03-09T10:22:52.026Z,13.10
2018-03-09T10:25:19.120Z,11.80
2018-03-09T10:27:45.473Z,12.00
2018-03-09T10:30:11.834Z,12.67
2018-03-09T10:32:38.927Z,12.60
2018-03-09T10:35:05.298Z,12.40
2018-03-09T10:37:31.614Z,12.03
2018-03-09T10:39:57.982Z,11.27
2018-03-09T10:42:25.063Z,12.00
2018-03-09T10:44:51.399Z,12.57
2018-03-09T10:47:18.511Z,11.40
2018-03-09T10:49:45.606Z,10.43
2018-03-09T10:52:12.121Z,11.33
2018-03-09T10:54:39.355Z,9.90
2018-03-09T10:57:05.710Z,11.57
2018-03-09T10:59:32.044Z,10.60
2018-03-09T11:01:58.399Z,11.10
2018-03-09T11:04:24.753Z,11.23
2018-03-09T11:06:51.890Z,10.77
2018-03-09T11:09:18.222Z,10.87
2018-03-09T11:11:44.593Z,11.90
2018-03-09T11:14:10.919Z,10.73
2018-03-09T11:16:37.284Z,11.63
2018-03-09T11:19:03.814Z,12.73
2018-03-09T11:21:30.298Z,12.37
2018-03-09T11:23:56.650Z,11.93
2018-03-09T11:26:22.980Z,12.27
2018-03-09T11:28:50.048Z,11.60
2018-03-09T11:31:16.396Z,12.13
2018-03-09T11:33:42.726Z,11.30
2018-03-09T11:36:09.066Z,10.90
2018-03-09T11:38:35.409Z,11.57
2018-03-09T11:41:01.820Z,11.37
2018-03-09T11:43:28.120Z,12.20
2018-03-09T11:45:54.441Z,11.40
2018-03-09T11:48:20.779Z,11.17
2018-03-09T11:50:47.134Z,12.50
2018-03-09T11:53:13.476Z,10.60
2018-03-09T11:55:39.808Z,9.80
2018-03-09T11:58:06.142Z,11.37
2018-03-09T12:00:32.471Z,11.23
2018-03-09T12:02:58.819Z,9.90
2018-03-09T12:05:25.152Z,9.57
2018-03-09T12:07:51.525Z,9.47
2018-03-09T12:10:17.874Z,9.30
2018-03-09T12:12:44.224Z,10.10
2018-03-09T12:15:10.561Z,8.43
2018-03-09T12:17:38.405Z,9.10
2018-03-09T12:20:04.735Z,8.77
2018-03-09T12:22:31.087Z,8.90
2018-03-09T12:24:57.431Z,9.40
2018-03-09T12:27:23.783Z,11.03
2018-03-09T12:29:50.856Z,9.53
2018-03-09T12:32:17.197Z,9.47
2018-03-09T12:34:43.531Z,9.93
2018-03-09T12:37:15.269Z,10.47
2018-03-09T12:39:41.953Z,9.80
2018-03-09T12:42:08.279Z,10.27
2018-03-09T12:44:34.647Z,8.77
2018-03-09T12:47:01.820Z,9.77
2018-03-09T12:49:28.172Z,9.80
2018-03-09T12:51:54.508Z,10.40
2018-03-09T12:54:20.871Z,9.87
2018-03-09T12:56:48.675Z,10.70
2018-03-09T12:59:15.027Z,11.03
2018-03-09T13:01:41.386Z,10.20
2018-03-09T13:04:07.727Z,11.20
2018-03-09T13:06:34.816Z,10.20
2018-03-09T13:09:01.962Z,10.70
2018-03-09T13:11:31.331Z,10.93
2018-03-09T13:14:00.703Z,10.93
2018-03-09T13:16:27.060Z,11.30
2018-03-09T13:18:53.391Z,11.33
2018-03-09T13:21:19.704Z,11.50
2018-03-09T13:23:46.774Z,10.40
2018-03-09T13:26:13.864Z,9.50
2018-03-09T13:28:40.188Z,8.43
2018-03-09T13:31:06.525Z,9.47
2018-03-09T13:33:32.844Z,8.47
2018-03-09T13:35:59.161Z,8.87
2018-03-09T13:38:26.178Z,8.60
2018-03-09T13:40:53.237Z,7.50
2018-03-09T13:43:19.509Z,7.40
2018-03-09T13:45:45.831Z,8.30
2018-03-09T13:48:12.126Z,8.50
2018-03-09T13:50:38.632Z,6.90
2018-03-09T13:53:04.934Z,6.30
2018-03-09T13:55:31.257Z,7.17
2018-03-09T13:57:57.549Z,7.30
2018-03-09T14:00:23.862Z,7.10
2018-03-09T14:02:50.177Z,7.73
2018-03-09T14:05:16.500Z,7.20
2018-03-09T14:07:42.799Z,7.00
2018-03-09T14:10:09.105Z,7.33
2018-03-09T14:12:36.130Z,7.23
2018-03-09T14:15:02.497Z,7.30
2018-03-09T14:17:29.555Z,6.50
2018-03-09T14:19:55.841Z,7.03
2018-03-09T14:22:22.137Z,6.40
2018-03-09T14:24:48.492Z,5.83
2018-03-09T14:27:14.797Z,5.10
2018-03-09T14:29:41.120Z,5.30
2018-03-09T14:32:07.452Z,4.43
2018-03-09T14:34:33.754Z,5.17
2018-03-09T14:37:00.841Z,5.30
2018-03-09T14:39:27.142Z,5.03
2018-03-09T14:41:54.189Z,5.33
2018-03-09T14:44:21.254Z,5.00
2018-03-09T14:46:47.582Z,5.03
2018-03-09T14:49:13.888Z,5.90
2018-03-09T14:51:40.986Z,5.30
2018-03-09T14:54:07.288Z,5.57
2018-03-09T14:56:33.592Z,5.10
2018-03-09T14:59:00.655Z,5.50
2018-03-09T15:01:26.960Z,6.03
2018-03-09T15:03:54.006Z,5.90
2018-03-09T15:06:21.047Z,5.77
2018-03-09T15:08:48.093Z,4.90
2018-03-09T15:11:14.384Z,6.10
2018-03-09T15:13:40.719Z,5.70
2018-03-09T15:16:07.004Z,5.13
2018-03-09T15:18:34.031Z,5.67
2018-03-09T15:21:00.317Z,5.77
2018-03-09T15:23:26.700Z,4.90
2018-03-09T15:25:53.730Z,5.13
2018-03-09T15:28:20.048Z,5.70
2018-03-09T15:30:46.375Z,6.23
2018-03-09T15:33:12.762Z,6.77
2018-03-09T15:35:40.846Z,5.90
2018-03-09T15:38:09.043Z,5.70
2018-03-09T15:40:35.343Z,6.10
2018-03-09T15:43:01.670Z,6.47
2018-03-09T15:45:27.960Z,5.67
2018-03-09T15:47:54.266Z,6.40
2018-03-09T15:50:20.574Z,5.70
2018-03-09T15:52:46.885Z,5.50
2018-03-09T15:55:13.229Z,6.10
2018-03-09T15:57:39.549Z,5.77
2018-03-09T16:00:05.897Z,5.63
2018-03-09T16:02:32.184Z,6.40
2018-03-09T16:04:59.250Z,6.30
2018-03-09T16:07:25.564Z,6.70
2018-03-09T16:09:52.651Z,6.30
2018-03-09T16:12:20.514Z,7.07
2018-03-09T16:14:46.836Z,6.93
2018-03-09T16:17:13.146Z,7.20
2018-03-09T16:19:40.192Z,6.80
2018-03-09T16:22:06.508Z,5.90
2018-03-09T16:24:32.823Z,6.50
2018-03-09T16:27:00.617Z,6.40
2018-03-09T16:29:27.664Z,6.90
2018-03-09T16:31:54.724Z,6.70
2018-03-09T16:34:21.009Z,6.93
2018-03-09T16:36:47.296Z,7.40
2018-03-09T16:39:13.649Z,7.00
2018-03-09T16:41:39.966Z,7.30
2018-03-09T16:44:06.275Z,8.00
2018-03-09T16:46:32.580Z,6.83
2018-03-09T16:48:59.635Z,7.20
2018-03-09T16:51:25.935Z,7.47
2018-03-09T16:53:52.233Z,7.90
2018-03-09T16:56:18.650Z,8.30
2018-03-09T16:58:45.295Z,6.80
2018-03-09T17:01:11.637Z,8.60
2018-03-09T17:03:38.048Z,8.10
2018-03-09T17:06:05.189Z,7.60
2018-03-09T17:08:32.245Z,8.43
2018-03-09T17:10:58.572Z,8.43
2018-03-09T17:13:25.929Z,8.43
2018-03-09T17:15:52.235Z,8.83
2018-03-09T17:18:19.272Z,8.10
2018-03-09T17:20:45.587Z,8.50
2018-03-09T17:23:11.913Z,9.23
2018-03-09T17:25:38.208Z,7.63
2018-03-09T17:28:04.522Z,8.23
2018-03-09T17:30:30.854Z,8.70
2018-03-09T17:32:57.152Z,7.50
2018-03-09T17:35:24.225Z,6.67
2018-03-09T17:37:51.283Z,6.90
2018-03-09T17:40:17.588Z,7.70
2018-03-09T17:42:43.910Z,8.00
2018-03-09T17:45:10.952Z,7.63
2018-03-09T17:47:37.237Z,8.77
2018-03-09T17:50:03.558Z,7.20
2018-03-09T17:52:29.845Z,8.17
2018-03-09T17:54:56.168Z,8.00
2018-03-09T17:57:22.469Z,7.77
2018-03-09T17:59:48.773Z,8.07
2018-03-09T18:02:15.069Z,8.37
2018-03-09T18:04:42.224Z,8.60
2018-03-09T18:07:09.305Z,8.37
2018-03-09T18:09:35.664Z,9.03
2018-03-09T18:12:08.052Z,8.67
2018-03-09T18:14:35.253Z,7.93
2018-03-09T18:17:02.291Z,7.90
2018-03-09T18:19:28.617Z,7.20
2018-03-09T18:21:54.925Z,7.13
2018-03-09T18:24:22.004Z,7.73
2018-03-09T18:26:48.294Z,8.27
2018-03-09T18:29:14.580Z,8.10
2018-03-09T18:31:40.888Z,7.13
2018-03-09T18:34:07.206Z,6.50
2018-03-09T18:36:34.265Z,7.70
2018-03-09T18:39:00.569Z,8.20
2018-03-09T18:41:27.642Z,8.30
2018-03-09T18:43:53.929Z,7.13
2018-03-09T18:46:20.255Z,7.17
2018-03-09T18:48:46.548Z,6.70
2018-03-09T18:51:12.861Z,8.17
2018-03-09T18:53:39.163Z,7.83
2018-03-09T18:56:06.316Z,7.90
2018-03-09T18:58:33.417Z,7.87
2018-03-09T19:00:59.743Z,6.93
2018-03-09T19:03:26.045Z,6.63
2018-03-09T19:05:52.594Z,7.47
2018-03-09T19:08:18.911Z,7.30
2018-03-09T19:10:45.959Z,8.03
2018-03-09T19:13:13.005Z,7.80
2018-03-09T19:15:39.651Z,11.10
2018-03-09T19:18:05.953Z,12.53
2018-03-09T19:20:33.034Z,12.47
2018-03-09T19:23:00.375Z,8.03
2018-03-09T19:25:26.734Z,8.10
2018-03-09T19:27:53.023Z,7.57
2018-03-09T19:30:20.055Z,8.70
2018-03-09T19:32:47.088Z,9.03
2018-03-09T19:35:13.430Z,11.23
2018-03-09T19:37:39.791Z,10.03
2018-03-09T19:40:06.815Z,9.20
2018-03-09T19:42:33.914Z,8.13
2018-03-09T19:45:00.215Z,7.80
2018-03-09T19:47:26.530Z,9.70
2018-03-09T19:49:52.833Z,9.60
2018-03-09T19:52:19.893Z,10.03
2018-03-09T19:54:46.520Z,11.03
2018-03-09T19:57:12.850Z,10.80
2018-03-09T19:59:39.159Z,11.53
2018-03-09T20:02:05.502Z,9.60
2018-03-09T20:04:31.816Z,9.43
2018-03-09T20:06:58.136Z,9.50
2018-03-09T20:09:24.461Z,8.80
2018-03-09T20:11:50.761Z,8.83
2018-03-09T20:14:17.826Z,9.70
2018-03-09T20:16:44.106Z,9.40
2018-03-09T20:19:11.892Z,10.33
2018-03-09T20:21:38.928Z,10.13
2018-03-09T20:24:05.241Z,10.53
2018-03-09T20:26:31.539Z,10.43
2018-03-09T20:28:57.854Z,11.77
2018-03-09T20:31:24.143Z,9.80
2018-03-09T20:33:50.487Z,9.93
2018-03-09T20:36:17.518Z,10.40
2018-03-09T20:38:43.808Z,10.40
2018-03-09T20:41:10.100Z,9.73
2018-03-09T20:43:37.179Z,9.90
2018-03-09T20:46:03.525Z,10.97
2018-03-09T20:48:29.846Z,9.70
2018-03-09T20:50:56.169Z,10.60
2018-03-09T20:53:22.497Z,9.57
2018-03-09T20:55:48.831Z,9.63
2018-03-09T20:58:15.113Z,9.07
2018-03-09T21:00:42.183Z,10.63
2018-03-09T21:03:08.493Z,19.80
2018-03-09T21:05:34.803Z,20.80
2018-03-09T21:08:01.095Z,10.23
2018-03-09T21:10:27.447Z,10.13
2018-03-09T21:12:53.759Z,10.90
2018-03-09T21:15:20.058Z,12.40
2018-03-09T21:17:47.112Z,11.87
2018-03-09T21:20:13.400Z,10.33
2018-03-09T21:22:39.692Z,11.60
2018-03-09T21:25:06.019Z,12.23
2018-03-09T21:27:32.299Z,14.47
2018-03-09T21:29:58.597Z,12.60
2018-03-09T21:32:24.907Z,13.00
2018-03-09T21:34:51.209Z,12.33
2018-03-09T21:37:18.260Z,14.33
2018-03-09T21:39:45.310Z,13.60
2018-03-09T21:42:12.353Z,13.70
2018-03-09T21:44:39.367Z,14.00
2018-03-09T21:47:05.678Z,14.73
2018-03-09T21:49:31.996Z,14.93
2018-03-09T21:51:58.309Z,16.10
2018-03-09T21:54:24.592Z,16.80
2018-03-09T21:56:50.900Z,17.53
2018-03-09T21:59:17.221Z,17.60
2018-03-09T22:01:43.532Z,16.90
2018-03-09T22:04:09.823Z,17.17
2018-03-09T22:06:36.153Z,16.80
2018-03-09T22:09:02.468Z,15.50
2018-03-09T22:11:29.520Z,16.90
2018-03-09T22:13:55.822Z,16.90
2018-03-09T22:16:22.126Z,15.60
2018-03-09T22:18:48.470Z,15.50
2018-03-09T22:21:14.750Z,15.23
2018-03-09T22:23:41.033Z,15.97
2018-03-09T22:26:07.323Z,14.80
2018-03-09T22:28:34.353Z,14.60
2018-03-09T22:31:00.632Z,15.73
2018-03-09T22:33:26.921Z,19.70
2018-03-09T22:35:53.945Z,16.40
2018-03-09T22:38:20.243Z,15.37
2018-03-09T22:40:46.526Z,16.00
2018-03-09T22:43:13.573Z,16.80
2018-03-09T22:45:40.612Z,16.90
2018-03-09T22:48:06.914Z,17.90
2018-03-09T22:50:33.191Z,20.13
2018-03-09T22:52:59.501Z,18.27
2018-03-09T22:55:26.539Z,18.53
2018-03-09T22:57:52.828Z,17.50
2018-03-09T23:00:19.124Z,19.97
2018-03-09T23:02:45.468Z,18.10
2018-03-09T23:05:11.753Z,19.33
2018-03-09T23:07:38.082Z,17.37
2018-03-09T23:10:04.416Z,17.80
2018-03-09T23:12:30.700Z,18.47
2018-03-09T23:14:56.993Z,18.60
2018-03-09T23:17:24.021Z,19.03
2018-03-09T23:19:50.317Z,19.67
2018-03-09T23:22:16.608Z,20.23
2018-03-09T23:24:42.931Z,19.63
2018-03-09T23:27:09.959Z,20.73
2018-03-09T23:29:36.250Z,20.70
2018-03-09T23:32:02.534Z,19.37
2018-03-09T23:34:29.575Z,20.57
2018-03-09T23:36:55.863Z,20.07
2018-03-09T23:39:22.154Z,20.30
2018-03-09T23:41:49.164Z,19.83
2018-03-09T23:44:15.455Z,20.47
2018-03-09T23:46:41.981Z,21.43
2018-03-09T23:49:08.282Z,20.87
2018-03-09T23:51:34.604Z,21.83
2018-03-09T23:54:00.882Z,19.37
2018-03-09T23:56:27.179Z,20.80
2018-03-09T23:58:54.198Z,21.67
